This is the latest recevied weather packets stored in our database for station/object K0CVS. If no packets are shown the sender has not sent any weather packets the latest 1 day(s).
| Time | Temp. | Humidity | Pressure | Rain* | Wind** | Luminosity | Snow |
|---|---|---|---|---|---|---|---|
| 1836274605 | 21.11° C | 71% | 1017.3 hPa | 0 mm | 0 m/s | 0 W/m² | - |
| 1836274458 | 20.56° C | 72% | 1017.4 hPa | 0 mm | 0 m/s | 0 W/m² | - |
| 1836274303 | 21.11° C | 70% | 1017.4 hPa | 0 mm | 0 m/s | 0 W/m² | - |
| 1836274157 | 20.56° C | 71% | 1017.4 hPa | 0 mm | 0 m/s | 0 W/m² | - |
| 1836274002 | 21.11° C | 70% | 1017.4 hPa | 0 mm | 0 m/s | 0 W/m² | - |
| 1778047600 | 7.78° C | 79% | 1015.9 hPa | 0 mm | 0 m/s | 0 W/m² | - |
| 1778047297 | 7.78° C | 79% | 1016.1 hPa | 1.27 mm | 0 m/s | 0 W/m² | - |
| 1778046994 | 8.33° C | 78% | 1015.9 hPa | 1.27 mm | 0 m/s | 0 W/m² | - |
| 1778046691 | 8.33° C | 77% | 1015.7 hPa | 0 mm | 0.45 m/s, 164° | 0 W/m² | - |
| 1778046388 | 8.33° C | 77% | 1015.7 hPa | 0 mm | 0.89 m/s, 348° | 0 W/m² | - |
| 1778046084 | 8.33° C | 77% | 1015.7 hPa | 0 mm | 0 m/s | 0 W/m² | - |
| 1778045782 | 8.33° C | 77% | 1015.8 hPa | 0 mm | 0 m/s | 0 W/m² | - |
| 1778045480 | 8.33° C | 77% | 1015.7 hPa | 0 mm | 0 m/s | 0 W/m² | - |
| 1778045178 | 8.33° C | 78% | 1015.8 hPa | 0 mm | 0 m/s | 0 W/m² | - |
| 1778044876 | 8.33° C | 78% | 1015.8 hPa | 0 mm | 0 m/s | 0 W/m² | - |
| 1778044573 | 8.33° C | 77% | 1015.6 hPa | 0 mm | 0 m/s | 0 W/m² | - |
| 1778044269 | 8.33° C | 77% | 1015.7 hPa | 0 mm | 0 m/s | 0 W/m² | - |
| 1778043967 | 8.33° C | 77% | 1015.6 hPa | 0 mm | 0 m/s | 0 W/m² | - |
| 1778043664 | 8.33° C | 79% | 1015.7 hPa | 0 mm | 0 m/s | 0 W/m² | - |
| 1778043361 | 8.33° C | 80% | 1015.3 hPa | 0 mm | 0 m/s | 0 W/m² | - |
| 1778043057 | 8.33° C | 81% | 1015.5 hPa | 0 mm | 0 m/s | 0 W/m² | - |
| 1778042756 | 8.33° C | 81% | 1015.4 hPa | 0 mm | 0 m/s | 0 W/m² | - |
| 1778042452 | 8.33° C | 78% | 1015.2 hPa | 0 mm | 0 m/s | 0 W/m² | - |
| 1778042149 | 8.89° C | 77% | 1015.3 hPa | 0 mm | 0.45 m/s, 293° | 0 W/m² | - |
| 1778041848 | 8.89° C | 77% | 1015.5 hPa | 0 mm | 0 m/s | 0 W/m² | - |
* Rain latest hour (hover to see other rain measurements)
** Current wind speed in m/s (hover to see current wind gust speed)